createdAt,value
2018-12-15T00:01:09.044Z,41.40
2018-12-15T00:03:37.592Z,37.48
2018-12-15T00:06:06.462Z,39.60
2018-12-15T00:08:35.036Z,35.50
2018-12-15T00:11:03.613Z,37.28
2018-12-15T00:13:32.202Z,40.23
2018-12-15T00:16:00.768Z,47.33
2018-12-15T00:18:29.367Z,36.63
2018-12-15T00:20:57.940Z,35.92
2018-12-15T00:23:26.526Z,37.25
2018-12-15T00:25:55.077Z,32.93
2018-12-15T00:28:23.632Z,42.30
2018-12-15T00:30:52.213Z,37.40
2018-12-15T00:33:20.766Z,39.58
2018-12-15T00:35:49.563Z,44.40
2018-12-15T00:38:18.250Z,36.98
2018-12-15T00:40:46.806Z,42.60
2018-12-15T00:43:15.453Z,30.77
2018-12-15T00:45:44.464Z,41.37
2018-12-15T00:48:13.032Z,39.13
2018-12-15T00:50:41.614Z,39.88
2018-12-15T00:53:10.200Z,35.63
2018-12-15T00:55:38.774Z,40.10
2018-12-15T00:58:07.351Z,39.30
2018-12-15T01:00:35.903Z,34.58
2018-12-15T01:03:04.761Z,40.58
2018-12-15T01:05:33.332Z,38.23
2018-12-15T01:08:01.856Z,34.85
2018-12-15T01:10:30.463Z,39.55
2018-12-15T01:12:59.308Z,38.73
2018-12-15T01:15:33.169Z,38.63
2018-12-15T01:18:01.722Z,38.17
2018-12-15T01:20:30.313Z,34.73
2018-12-15T01:22:58.900Z,39.27
2018-12-15T01:25:27.485Z,35.43
2018-12-15T01:27:56.067Z,34.55
2018-12-15T01:30:24.648Z,41.55
2018-12-15T01:32:53.217Z,37.55
2018-12-15T01:35:21.780Z,37.25
2018-12-15T01:37:50.337Z,38.58
2018-12-15T01:40:18.928Z,34.08
2018-12-15T01:42:47.656Z,37.95
2018-12-15T01:45:16.651Z,41.37
2018-12-15T01:47:45.222Z,36.70
2018-12-15T01:50:13.790Z,37.00
2018-12-15T01:52:42.380Z,36.53
2018-12-15T01:55:10.983Z,41.88
2018-12-15T01:57:40.064Z,37.15
2018-12-15T02:00:09.317Z,35.98
2018-12-15T02:02:37.892Z,34.70
2018-12-15T02:05:06.486Z,37.50
2018-12-15T02:07:35.076Z,38.00
2018-12-15T02:10:04.022Z,36.77
2018-12-15T02:12:32.577Z,37.03
2018-12-15T02:15:01.189Z,38.02
2018-12-15T02:17:33.584Z,37.93
2018-12-15T02:20:00.457Z,34.33
2018-12-15T02:22:29.048Z,38.88
2018-12-15T02:24:57.609Z,38.88
2018-12-15T02:27:26.152Z,34.48
2018-12-15T02:29:54.740Z,36.53
2018-12-15T02:32:23.329Z,36.38
2018-12-15T02:34:51.908Z,35.52
2018-12-15T02:37:20.469Z,36.33
2018-12-15T02:39:49.035Z,36.03
2018-12-15T02:42:17.724Z,36.25
2018-12-15T02:44:46.310Z,35.80
2018-12-15T02:47:14.991Z,35.05
2018-12-15T02:49:43.548Z,38.75
2018-12-15T02:52:12.125Z,39.55
2018-12-15T02:54:40.688Z,33.55
2018-12-15T02:57:09.257Z,33.92
2018-12-15T02:59:37.826Z,35.15
2018-12-15T03:02:06.396Z,31.12
2018-12-15T03:04:34.981Z,36.95
2018-12-15T03:07:03.865Z,35.23
2018-12-15T03:09:32.428Z,33.73
2018-12-15T03:12:01.360Z,32.63
2018-12-15T03:14:30.025Z,33.75
2018-12-15T03:17:06.740Z,31.48
2018-12-15T03:19:35.425Z,33.48
2018-12-15T03:22:04.006Z,38.00
2018-12-15T03:24:32.614Z,33.67
2018-12-15T03:27:01.206Z,39.33
2018-12-15T03:29:29.789Z,32.20
2018-12-15T03:31:58.360Z,33.78
2018-12-15T03:34:27.029Z,33.08
2018-12-15T03:36:55.591Z,35.85
2018-12-15T03:39:24.157Z,32.30
2018-12-15T03:41:52.973Z,31.15
2018-12-15T03:44:21.617Z,34.23
2018-12-15T03:46:50.188Z,34.75
2018-12-15T03:49:18.761Z,40.00
2018-12-15T03:51:47.353Z,35.52
2018-12-15T03:54:15.901Z,35.15
2018-12-15T03:56:44.494Z,35.52
2018-12-15T03:59:13.053Z,31.75
2018-12-15T04:01:41.643Z,39.85
2018-12-15T04:04:10.192Z,33.73
2018-12-15T04:06:38.946Z,34.98
2018-12-15T04:09:07.980Z,34.92
2018-12-15T04:11:36.808Z,43.25
2018-12-15T04:14:05.468Z,36.05
2018-12-15T04:16:34.043Z,35.70
2018-12-15T04:19:02.600Z,33.33
2018-12-15T04:21:31.184Z,41.55
2018-12-15T04:23:59.885Z,35.33
2018-12-15T04:26:28.717Z,35.73
2018-12-15T04:28:57.230Z,33.28
2018-12-15T04:31:25.856Z,35.10
2018-12-15T04:33:54.409Z,38.38
2018-12-15T04:36:22.984Z,34.70
2018-12-15T04:38:51.561Z,37.08
2018-12-15T04:41:20.120Z,33.88
2018-12-15T04:43:49.038Z,36.30
2018-12-15T04:46:17.621Z,35.20
2018-12-15T04:48:46.176Z,34.03
2018-12-15T04:51:14.773Z,35.43
2018-12-15T04:53:43.436Z,35.73
2018-12-15T04:56:12.042Z,28.12
2018-12-15T04:58:40.672Z,34.10
2018-12-15T05:01:09.330Z,36.60
2018-12-15T05:03:37.903Z,35.68
2018-12-15T05:06:06.468Z,35.88
2018-12-15T05:08:35.025Z,32.98
2018-12-15T05:11:03.648Z,32.35
2018-12-15T05:13:32.204Z,32.25
2018-12-15T05:16:00.760Z,33.95
2018-12-15T05:18:29.347Z,31.48
2018-12-15T05:20:57.898Z,30.17
2018-12-15T05:23:26.607Z,39.42
2018-12-15T05:25:55.169Z,35.03
2018-12-15T05:28:23.715Z,33.53
2018-12-15T05:30:52.303Z,30.55
2018-12-15T05:33:20.860Z,36.80
2018-12-15T05:35:49.452Z,33.95
2018-12-15T05:38:18.037Z,33.53
2018-12-15T05:40:46.600Z,32.75
2018-12-15T05:43:15.190Z,32.73
2018-12-15T05:45:43.774Z,30.40
2018-12-15T05:48:12.347Z,34.88
2018-12-15T05:50:40.925Z,28.98
2018-12-15T05:53:09.476Z,36.13
2018-12-15T05:55:38.058Z,29.67
2018-12-15T05:58:06.605Z,34.10
2018-12-15T06:00:35.189Z,30.65
2018-12-15T06:03:03.739Z,31.77
2018-12-15T06:05:32.341Z,29.75
2018-12-15T06:08:00.936Z,32.93
2018-12-15T06:10:29.504Z,24.80
2018-12-15T06:12:58.065Z,29.55
2018-12-15T06:15:26.650Z,28.57
2018-12-15T06:17:55.211Z,34.13
2018-12-15T06:20:23.788Z,33.50
2018-12-15T06:22:52.367Z,30.77
2018-12-15T06:25:20.929Z,31.30
2018-12-15T06:27:49.512Z,32.17
2018-12-15T06:30:18.848Z,35.40
2018-12-15T06:32:47.419Z,28.87
2018-12-15T06:35:16.000Z,28.35
2018-12-15T06:37:44.541Z,32.28
2018-12-15T06:40:13.145Z,30.65
2018-12-15T06:42:41.717Z,37.70
2018-12-15T06:45:10.301Z,33.23
2018-12-15T06:47:38.849Z,30.50
2018-12-15T06:50:07.684Z,32.15
2018-12-15T06:52:36.277Z,26.25
2018-12-15T06:55:05.205Z,31.85
2018-12-15T06:57:33.785Z,31.93
2018-12-15T07:00:02.377Z,27.13
2018-12-15T07:02:31.027Z,33.15
2018-12-15T07:04:59.604Z,30.48
2018-12-15T07:07:28.177Z,32.42
2018-12-15T07:09:56.733Z,28.65
2018-12-15T07:12:25.304Z,26.97
2018-12-15T07:14:53.971Z,31.10
2018-12-15T07:17:22.573Z,28.17
2018-12-15T07:19:51.212Z,25.52
2018-12-15T07:22:19.767Z,31.73
2018-12-15T07:24:48.356Z,29.10
2018-12-15T07:27:16.909Z,25.82
2018-12-15T07:29:45.485Z,29.15
2018-12-15T07:32:14.069Z,33.92
2018-12-15T07:34:42.764Z,30.12
2018-12-15T07:37:11.423Z,32.35
2018-12-15T07:39:40.292Z,31.55
2018-12-15T07:42:08.877Z,25.62
2018-12-15T07:44:37.429Z,25.50
2018-12-15T07:47:05.991Z,27.05
2018-12-15T07:49:34.548Z,29.00
2018-12-15T07:52:03.122Z,27.00
2018-12-15T07:54:31.700Z,31.77
2018-12-15T07:57:00.261Z,31.05
2018-12-15T07:59:28.816Z,24.87
2018-12-15T08:01:57.404Z,29.70
2018-12-15T08:04:25.977Z,31.07
2018-12-15T08:06:54.540Z,32.58
2018-12-15T08:09:23.344Z,25.77
2018-12-15T08:11:57.184Z,25.92
2018-12-15T08:14:25.893Z,30.27
2018-12-15T08:16:54.472Z,27.87
2018-12-15T08:19:23.736Z,23.77
2018-12-15T08:21:52.331Z,23.57
2018-12-15T08:24:20.980Z,25.25
2018-12-15T08:26:49.621Z,24.98
2018-12-15T08:29:18.208Z,25.30
2018-12-15T08:31:46.784Z,27.17
2018-12-15T08:34:15.345Z,25.02
2018-12-15T08:36:43.924Z,25.20
2018-12-15T08:39:12.508Z,26.97
2018-12-15T08:41:41.109Z,28.75
2018-12-15T08:44:09.676Z,29.30
2018-12-15T08:46:38.256Z,28.05
2018-12-15T08:49:06.815Z,29.40
2018-12-15T08:51:35.432Z,28.05
2018-12-15T08:54:04.000Z,24.30
2018-12-15T08:56:34.387Z,28.35
2018-12-15T08:59:02.980Z,26.15
2018-12-15T09:01:31.561Z,27.65
2018-12-15T09:04:00.145Z,26.55
2018-12-15T09:06:28.712Z,26.50
2018-12-15T09:08:57.264Z,30.30
2018-12-15T09:11:25.844Z,24.57
2018-12-15T09:13:54.383Z,27.62
2018-12-15T09:16:26.418Z,26.57
2018-12-15T09:18:53.509Z,25.50
2018-12-15T09:21:22.089Z,24.92
2018-12-15T09:23:51.634Z,24.95
2018-12-15T09:26:20.235Z,27.93
2018-12-15T09:28:48.799Z,27.22
2018-12-15T09:31:17.344Z,30.82
2018-12-15T09:33:45.933Z,27.20
2018-12-15T09:36:14.504Z,26.12
2018-12-15T09:38:43.076Z,21.20
2018-12-15T09:41:11.931Z,29.55
2018-12-15T09:43:40.500Z,29.25
2018-12-15T09:46:09.073Z,28.10
2018-12-15T09:48:37.637Z,25.55
2018-12-15T09:51:06.212Z,29.48
2018-12-15T09:53:34.812Z,32.05
2018-12-15T09:56:03.384Z,30.80
2018-12-15T09:58:31.956Z,30.68
2018-12-15T10:01:00.549Z,27.07
2018-12-15T10:03:29.121Z,28.60
2018-12-15T10:05:57.708Z,28.87
2018-12-15T10:08:26.324Z,29.50
2018-12-15T10:10:54.917Z,28.60
2018-12-15T10:13:23.500Z,27.27
2018-12-15T10:15:52.160Z,28.47
2018-12-15T10:18:20.678Z,31.33
2018-12-15T10:20:49.305Z,30.77
2018-12-15T10:23:17.873Z,29.90
2018-12-15T10:25:46.445Z,30.43
2018-12-15T10:28:15.024Z,32.00
2018-12-15T10:30:48.940Z,29.48
2018-12-15T10:33:17.507Z,31.62
2018-12-15T10:35:46.100Z,27.40
2018-12-15T10:38:14.660Z,27.52
2018-12-15T10:40:43.220Z,25.00
2018-12-15T10:43:11.776Z,35.80
2018-12-15T10:45:40.341Z,33.40
2018-12-15T10:48:15.275Z,30.65
2018-12-15T10:50:43.837Z,34.50
2018-12-15T10:53:12.403Z,33.35
2018-12-15T10:55:41.104Z,34.27
2018-12-15T10:58:09.788Z,34.73
2018-12-15T11:00:43.743Z,31.90
2018-12-15T11:03:12.376Z,40.40
2018-12-15T11:05:40.942Z,40.45
2018-12-15T11:08:09.533Z,39.95
2018-12-15T11:10:38.112Z,30.10
2018-12-15T11:13:06.693Z,42.45
2018-12-15T11:15:35.292Z,38.17
2018-12-15T11:18:03.992Z,38.38
2018-12-15T11:20:32.569Z,34.88
2018-12-15T11:23:01.174Z,32.85
2018-12-15T11:25:29.777Z,41.42
2018-12-15T11:27:58.357Z,30.08
2018-12-15T11:30:26.949Z,27.25
2018-12-15T11:32:55.525Z,33.50
2018-12-15T11:35:24.092Z,25.62
2018-12-15T11:37:52.687Z,21.50
2018-12-15T11:40:21.552Z,21.00
2018-12-15T11:42:50.158Z,24.07
2018-12-15T11:45:18.736Z,26.90
2018-12-15T11:47:47.636Z,22.62
2018-12-15T11:50:16.241Z,25.77
2018-12-15T11:52:44.801Z,19.70
2018-12-15T11:55:13.380Z,23.38
2018-12-15T11:57:41.976Z,22.70
2018-12-15T12:00:10.596Z,22.40
2018-12-15T12:02:39.173Z,25.85
2018-12-15T12:05:07.988Z,24.72
2018-12-15T12:07:36.573Z,23.55
2018-12-15T12:10:05.694Z,22.52
2018-12-15T12:12:34.325Z,26.17
2018-12-15T12:15:02.905Z,26.15
2018-12-15T12:17:31.506Z,21.48
2018-12-15T12:20:00.185Z,21.40
2018-12-15T12:22:28.749Z,19.30
2018-12-15T12:24:57.344Z,18.25
2018-12-15T12:27:25.953Z,20.00
2018-12-15T12:29:54.521Z,20.35
2018-12-15T12:32:23.109Z,20.53
2018-12-15T12:34:51.672Z,23.50
2018-12-15T12:37:20.241Z,21.47
2018-12-15T12:39:48.832Z,18.80
2018-12-15T12:42:17.391Z,20.33
2018-12-15T12:44:45.964Z,19.63
2018-12-15T12:47:14.540Z,22.03
2018-12-15T12:49:43.412Z,16.53
2018-12-15T12:52:12.589Z,17.67
2018-12-15T12:54:41.184Z,19.13
2018-12-15T12:57:09.757Z,19.47
2018-12-15T12:59:38.332Z,15.87
2018-12-15T13:02:07.544Z,17.17
2018-12-15T13:04:36.235Z,15.53
2018-12-15T13:07:04.836Z,15.50
2018-12-15T13:09:33.433Z,16.80
2018-12-15T13:12:02.029Z,19.03
2018-12-15T13:17:23.848Z,19.73
2018-12-15T13:19:52.421Z,20.90
2018-12-15T13:22:22.814Z,18.43
2018-12-15T13:24:51.441Z,22.07
2018-12-15T13:27:20.032Z,20.50
2018-12-15T13:29:49.053Z,21.03
2018-12-15T13:32:17.652Z,21.57
2018-12-15T13:34:46.219Z,21.27
2018-12-15T13:37:14.929Z,20.90
2018-12-15T13:39:44.545Z,18.73
2018-12-15T13:42:13.949Z,22.83
2018-12-15T13:44:42.564Z,22.90
2018-12-15T13:47:11.191Z,19.40
2018-12-15T13:49:39.777Z,18.83
2018-12-15T13:52:08.339Z,20.40
2018-12-15T13:54:36.908Z,23.13
2018-12-15T13:57:05.500Z,19.57
2018-12-15T13:59:34.106Z,20.20
2018-12-15T14:02:02.668Z,23.77
2018-12-15T14:04:31.228Z,19.03
2018-12-15T14:06:59.824Z,18.10
2018-12-15T14:09:28.405Z,21.13
2018-12-15T14:11:56.992Z,19.90
2018-12-15T14:14:25.564Z,24.03
2018-12-15T14:16:54.140Z,24.30
2018-12-15T14:19:22.741Z,23.70
2018-12-15T14:21:51.309Z,26.10
2018-12-15T14:24:19.871Z,23.70
2018-12-15T14:26:48.476Z,24.73
2018-12-15T14:29:17.047Z,23.50
2018-12-15T14:31:45.623Z,23.13
2018-12-15T14:34:14.209Z,23.97
2018-12-15T14:36:42.773Z,24.27
2018-12-15T14:39:11.360Z,29.47
2018-12-15T14:41:39.919Z,21.50
2018-12-15T14:44:08.472Z,24.53
2018-12-15T14:46:37.466Z,25.47
2018-12-15T14:49:06.048Z,29.20
2018-12-15T14:51:34.605Z,27.50
2018-12-15T14:54:03.209Z,29.17
2018-12-15T14:56:31.773Z,24.27
2018-12-15T14:59:00.306Z,27.20
2018-12-15T15:01:29.412Z,26.70
2018-12-15T15:03:57.981Z,31.77
2018-12-15T15:06:26.557Z,30.80
2018-12-15T15:08:55.140Z,31.80
2018-12-15T15:11:23.704Z,30.93
2018-12-15T15:13:52.301Z,26.73
2018-12-15T15:16:20.937Z,28.93
2018-12-15T15:18:49.510Z,27.30
2018-12-15T15:21:18.084Z,36.07
2018-12-15T15:23:46.673Z,29.63
2018-12-15T15:26:15.288Z,26.43
2018-12-15T15:28:43.864Z,30.43
2018-12-15T15:31:12.429Z,28.10
2018-12-15T15:33:41.025Z,30.83
2018-12-15T15:36:09.609Z,27.90
2018-12-15T15:38:38.173Z,27.07
2018-12-15T15:41:06.783Z,30.83
2018-12-15T15:43:35.441Z,28.80
2018-12-15T15:46:04.040Z,25.57
2018-12-15T15:48:32.669Z,26.57
2018-12-15T15:51:01.350Z,28.87
2018-12-15T15:53:29.940Z,28.70
2018-12-15T15:55:59.313Z,40.83
2018-12-15T15:58:27.879Z,36.50
2018-12-15T16:00:56.558Z,46.30
2018-12-15T16:03:25.128Z,39.80
2018-12-15T16:05:53.845Z,53.40
2018-12-15T16:08:22.440Z,40.40
2018-12-15T16:10:51.026Z,48.30
2018-12-15T16:13:19.593Z,38.13
2018-12-15T16:15:48.213Z,36.73
2018-12-15T16:18:17.272Z,43.50
2018-12-15T16:20:45.872Z,38.02
2018-12-15T16:23:14.525Z,46.07
2018-12-15T16:25:46.833Z,36.23
2018-12-15T16:28:15.416Z,48.68
2018-12-15T16:30:44.031Z,39.40
2018-12-15T16:33:12.621Z,41.73
2018-12-15T16:35:41.189Z,42.10
2018-12-15T16:38:09.789Z,43.70
2018-12-15T16:40:38.359Z,43.50
2018-12-15T16:43:06.940Z,42.08
2018-12-15T16:45:35.525Z,40.80
2018-12-15T16:48:04.109Z,40.15
2018-12-15T16:50:32.699Z,46.80
2018-12-15T16:53:01.400Z,41.30
2018-12-15T16:55:30.321Z,41.05
2018-12-15T16:57:58.905Z,36.68
2018-12-15T17:00:27.475Z,33.85
2018-12-15T17:02:56.084Z,33.83
2018-12-15T17:05:24.664Z,31.77
2018-12-15T17:07:53.269Z,28.12
2018-12-15T17:10:21.833Z,25.40
2018-12-15T17:12:50.420Z,30.60
2018-12-15T17:15:19.008Z,33.28
2018-12-15T17:17:47.580Z,26.95
2018-12-15T17:20:16.301Z,29.18
2018-12-15T17:22:44.813Z,27.95
2018-12-15T17:25:13.693Z,35.13
2018-12-15T17:27:42.289Z,33.00
2018-12-15T17:30:11.399Z,24.15
2018-12-15T17:32:40.001Z,21.42
2018-12-15T17:35:08.718Z,24.25
2018-12-15T17:37:37.297Z,26.97
2018-12-15T17:40:07.714Z,22.77
2018-12-15T17:42:36.556Z,24.80
2018-12-15T17:45:06.182Z,36.80
2018-12-15T17:47:34.748Z,29.55
2018-12-15T17:50:03.641Z,28.90
2018-12-15T17:52:32.245Z,26.77
2018-12-15T17:55:00.841Z,29.07
2018-12-15T17:57:29.410Z,27.77
2018-12-15T17:59:58.045Z,28.87
2018-12-15T18:02:26.653Z,37.33
2018-12-15T18:04:55.240Z,35.83
2018-12-15T18:07:23.836Z,32.20
2018-12-15T18:09:52.422Z,31.42
2018-12-15T18:12:20.980Z,33.33
2018-12-15T18:14:49.539Z,33.20
2018-12-15T18:17:18.128Z,29.72
2018-12-15T18:19:46.688Z,27.42
2018-12-15T18:22:19.060Z,28.77
2018-12-15T18:24:47.628Z,26.40
2018-12-15T18:27:16.578Z,28.80
2018-12-15T18:29:45.173Z,28.40
2018-12-15T18:32:13.736Z,25.85
2018-12-15T18:34:42.292Z,25.65
2018-12-15T18:37:10.919Z,28.55
2018-12-15T18:39:39.495Z,27.48
2018-12-15T18:42:11.008Z,23.55
2018-12-15T18:44:38.660Z,20.23
2018-12-15T18:47:07.233Z,25.40
2018-12-15T18:49:35.819Z,25.52
2018-12-15T18:52:04.427Z,24.00
2018-12-15T18:54:33.125Z,23.12
2018-12-15T18:57:01.721Z,22.00
2018-12-15T18:59:30.517Z,28.38
2018-12-15T19:02:05.641Z,23.73
2018-12-15T19:04:34.308Z,21.68
2018-12-15T19:07:02.892Z,24.75
2018-12-15T19:09:31.459Z,24.52
2018-12-15T19:12:00.021Z,22.87
2018-12-15T19:14:28.620Z,25.30
2018-12-15T19:16:57.189Z,25.30
2018-12-15T19:19:25.768Z,31.82
2018-12-15T19:21:54.399Z,24.60
2018-12-15T19:24:22.983Z,25.08
2018-12-15T19:26:51.541Z,25.75
2018-12-15T19:29:20.132Z,25.52
2018-12-15T19:31:48.661Z,25.15
2018-12-15T19:34:17.696Z,22.30
2018-12-15T19:36:46.384Z,25.50
2018-12-15T19:39:15.264Z,23.73
2018-12-15T19:41:44.207Z,26.82
2018-12-15T19:44:12.792Z,22.27
2018-12-15T19:46:41.390Z,26.05
2018-12-15T19:49:09.948Z,26.10
2018-12-15T19:51:38.505Z,26.17
2018-12-15T19:54:07.092Z,23.05
2018-12-15T19:56:35.676Z,22.65
2018-12-15T19:59:04.242Z,24.05
2018-12-15T20:01:33.413Z,23.80
2018-12-15T20:04:01.965Z,22.87
2018-12-15T20:06:30.565Z,24.45
2018-12-15T20:08:59.138Z,24.32
2018-12-15T20:11:27.901Z,25.20
2018-12-15T20:13:56.502Z,22.42
2018-12-15T20:16:25.298Z,24.95
2018-12-15T20:18:53.984Z,21.93
2018-12-15T20:21:23.336Z,25.20
2018-12-15T20:23:54.861Z,22.65
2018-12-15T20:26:23.489Z,33.42
2018-12-15T20:28:52.072Z,24.05
2018-12-15T20:31:20.632Z,26.37
2018-12-15T20:33:49.200Z,20.32
2018-12-15T20:36:18.617Z,25.30
2018-12-15T20:38:47.204Z,25.20
2018-12-15T20:41:15.769Z,22.73
2018-12-15T20:43:44.324Z,23.60
2018-12-15T20:46:12.917Z,24.43
2018-12-15T20:48:41.490Z,26.70
2018-12-15T20:51:10.065Z,23.60
2018-12-15T20:53:38.627Z,23.30
2018-12-15T20:56:07.197Z,24.40
2018-12-15T20:58:35.764Z,21.60
2018-12-15T21:01:04.367Z,24.90
2018-12-15T21:03:32.949Z,25.10
2018-12-15T21:06:01.515Z,21.73
2018-12-15T21:08:30.365Z,25.25
2018-12-15T21:10:59.005Z,23.35
2018-12-15T21:13:27.561Z,22.93
2018-12-15T21:15:58.361Z,23.70
2018-12-15T21:18:27.108Z,21.45
2018-12-15T21:20:55.808Z,22.30
2018-12-15T21:23:24.376Z,19.27
2018-12-15T21:25:52.965Z,20.17
2018-12-15T21:28:21.544Z,22.60
2018-12-15T21:30:50.153Z,22.42
2018-12-15T21:33:18.770Z,22.13
2018-12-15T21:35:47.432Z,24.12
2018-12-15T21:38:15.985Z,21.05
2018-12-15T21:40:44.575Z,19.77
2018-12-15T21:43:14.048Z,22.10
2018-12-15T21:45:42.604Z,26.30
2018-12-15T21:48:11.561Z,21.85
2018-12-15T21:50:40.258Z,24.63
2018-12-15T21:53:09.136Z,23.02
2018-12-15T21:55:37.692Z,21.12
2018-12-15T21:58:06.295Z,26.70
2018-12-15T22:00:34.857Z,24.98
2018-12-15T22:03:04.172Z,20.25
2018-12-15T22:05:32.765Z,24.23
2018-12-15T22:08:01.325Z,19.62
2018-12-15T22:10:29.885Z,17.85
2018-12-15T22:12:58.481Z,20.27
2018-12-15T22:15:27.044Z,17.80
2018-12-15T22:17:55.612Z,22.27
2018-12-15T22:20:24.432Z,18.17
2018-12-15T22:22:53.000Z,23.65
2018-12-15T22:25:21.570Z,21.12
2018-12-15T22:27:50.157Z,18.80
2018-12-15T22:30:18.711Z,22.25
2018-12-15T22:32:47.399Z,19.12
2018-12-15T22:35:15.968Z,21.07
2018-12-15T22:37:44.528Z,19.27
2018-12-15T22:40:13.127Z,22.02
2018-12-15T22:42:41.723Z,19.57
2018-12-15T22:45:10.280Z,24.05
2018-12-15T22:47:38.848Z,22.25
2018-12-15T22:50:08.806Z,25.40
2018-12-15T22:52:37.378Z,18.73
2018-12-15T22:55:06.393Z,21.00
2018-12-15T22:57:34.976Z,24.00
2018-12-15T23:00:04.583Z,23.10
2018-12-15T23:02:33.143Z,21.77
2018-12-15T23:05:01.709Z,20.88
2018-12-15T23:07:30.303Z,22.60
2018-12-15T23:09:58.864Z,19.98
2018-12-15T23:12:27.748Z,21.97
2018-12-15T23:14:56.306Z,21.77
2018-12-15T23:17:24.872Z,16.77
2018-12-15T23:19:53.549Z,20.92
2018-12-15T23:22:22.116Z,19.30
2018-12-15T23:24:51.020Z,23.62
2018-12-15T23:27:19.580Z,20.80
2018-12-15T23:29:48.172Z,18.70
2018-12-15T23:32:16.752Z,18.42
2018-12-15T23:34:45.328Z,20.88
2018-12-15T23:37:13.925Z,19.60
2018-12-15T23:39:42.481Z,16.23
2018-12-15T23:42:11.105Z,18.27
2018-12-15T23:44:39.696Z,16.93
2018-12-15T23:47:08.277Z,18.17
2018-12-15T23:49:36.832Z,16.62
2018-12-15T23:52:05.436Z,18.82
2018-12-15T23:54:34.000Z,18.07
2018-12-15T23:57:02.705Z,19.37
2018-12-15T23:59:31.297Z,18.80
